createdAt,value
2019-03-20T00:02:11.622Z,6.53
2019-03-20T00:05:15.704Z,7.33
2019-03-20T00:08:18.861Z,8.00
2019-03-20T00:11:22.025Z,8.30
2019-03-20T00:14:25.256Z,5.17
2019-03-20T00:17:28.515Z,8.77
2019-03-20T00:20:31.791Z,8.67
2019-03-20T00:23:34.984Z,5.30
2019-03-20T00:26:38.217Z,9.67
2019-03-20T00:29:41.422Z,7.73
2019-03-20T00:32:44.625Z,8.73
2019-03-20T00:35:47.863Z,9.53
2019-03-20T00:38:51.072Z,9.23
2019-03-20T00:41:54.360Z,14.10
2019-03-20T00:44:57.682Z,10.13
2019-03-20T00:48:00.850Z,8.80
2019-03-20T00:51:04.156Z,10.87
2019-03-20T00:54:08.350Z,8.57
2019-03-20T00:57:11.572Z,6.50
2019-03-20T01:00:16.638Z,10.93
2019-03-20T01:03:19.862Z,7.40
2019-03-20T01:06:23.055Z,7.57
2019-03-20T01:09:26.191Z,8.40
2019-03-20T01:12:29.391Z,5.50
2019-03-20T01:15:32.556Z,7.40
2019-03-20T01:18:35.812Z,6.73
2019-03-20T01:21:39.084Z,6.87
2019-03-20T01:24:42.333Z,10.07
2019-03-20T01:27:45.560Z,8.40
2019-03-20T01:30:48.803Z,10.50
2019-03-20T01:33:52.059Z,8.53
2019-03-20T01:36:55.356Z,10.43
2019-03-20T01:39:58.575Z,8.33
2019-03-20T01:43:01.791Z,6.77
2019-03-20T01:46:05.156Z,8.83
2019-03-20T01:49:08.336Z,7.07
2019-03-20T01:52:11.611Z,5.93
2019-03-20T01:55:14.812Z,7.67
2019-03-20T01:58:18.135Z,7.50
2019-03-20T02:01:21.579Z,6.60
2019-03-20T02:04:24.854Z,8.10
2019-03-20T04:08:02.524Z,10.27
2019-03-20T04:11:05.845Z,5.80
2019-03-20T04:14:09.071Z,8.60
2019-03-20T04:17:25.198Z,7.77
2019-03-20T04:20:28.375Z,7.77
2019-03-20T04:23:31.625Z,6.83
2019-03-20T04:26:34.876Z,8.77
2019-03-20T04:29:38.176Z,11.03
2019-03-20T04:32:41.398Z,9.23
2019-03-20T04:35:44.559Z,8.20
2019-03-20T04:38:47.798Z,7.87
2019-03-20T04:41:50.940Z,10.80
2019-03-20T04:44:54.243Z,7.83
2019-03-20T04:47:57.524Z,9.97
2019-03-20T04:51:00.719Z,7.83
2019-03-20T04:54:03.911Z,6.93
2019-03-20T04:57:07.218Z,8.07
2019-03-20T05:00:12.566Z,8.23
2019-03-20T05:03:15.811Z,10.13
2019-03-20T05:06:18.986Z,7.80
2019-03-20T05:09:22.242Z,8.13
2019-03-20T05:12:25.437Z,9.00
2019-03-20T05:15:28.671Z,9.83
2019-03-20T05:18:31.825Z,7.23
2019-03-20T05:21:35.473Z,6.90
2019-03-20T05:24:38.696Z,6.33
2019-03-20T05:27:41.896Z,13.80
2019-03-20T05:30:45.507Z,6.80
2019-03-20T05:33:48.634Z,6.63
2019-03-20T05:36:52.583Z,9.30
2019-03-20T05:39:55.841Z,9.50
2019-03-20T05:42:59.272Z,4.70
2019-03-20T05:46:02.424Z,6.57
2019-03-20T05:49:05.632Z,7.17
2019-03-20T05:52:08.897Z,6.50
2019-03-20T05:55:12.018Z,7.57
2019-03-20T05:58:15.227Z,11.73
2019-03-20T06:01:18.539Z,9.57
2019-03-20T06:04:21.773Z,8.57
2019-03-20T06:07:24.904Z,9.90
2019-03-20T06:10:28.319Z,7.33
2019-03-20T06:13:31.485Z,7.33
2019-03-20T06:16:34.785Z,7.13
2019-03-20T06:19:37.995Z,10.60
2019-03-20T06:22:41.164Z,11.23
2019-03-20T06:25:44.379Z,9.43
2019-03-20T06:28:47.634Z,8.70
2019-03-20T06:31:50.908Z,9.57
2019-03-20T06:34:54.053Z,13.63
2019-03-20T06:37:57.322Z,9.37
2019-03-20T06:41:00.888Z,7.67
2019-03-20T06:44:04.152Z,8.87
2019-03-20T06:47:07.323Z,12.50
2019-03-20T06:50:12.737Z,11.97
2019-03-20T06:53:15.968Z,9.73
2019-03-20T06:56:19.178Z,10.70
2019-03-20T06:59:57.588Z,9.80
2019-03-20T07:03:01.336Z,10.20
2019-03-20T07:06:18.296Z,12.53
2019-03-20T07:09:27.864Z,7.17
2019-03-20T07:12:31.146Z,9.37
2019-03-20T07:15:34.415Z,7.83
2019-03-20T07:18:37.715Z,7.57
2019-03-20T07:21:40.871Z,19.10
2019-03-20T07:24:44.086Z,11.97
2019-03-20T07:27:47.351Z,12.43
2019-03-20T07:30:50.633Z,11.40
2019-03-20T07:33:53.807Z,9.40
2019-03-20T07:36:57.017Z,6.40
2019-03-20T07:40:00.282Z,9.70
2019-03-20T07:43:08.639Z,8.03
2019-03-20T07:46:06.520Z,8.50
2019-03-20T07:49:09.723Z,11.57
2019-03-20T07:52:13.014Z,12.93
2019-03-20T07:55:16.162Z,15.17
2019-03-20T07:58:19.359Z,10.53
2019-03-20T08:01:22.933Z,14.20
2019-03-20T08:04:26.086Z,13.23
2019-03-20T08:07:29.340Z,16.10
2019-03-20T08:10:32.634Z,10.43
2019-03-20T08:13:35.924Z,15.70
2019-03-20T08:16:39.148Z,12.47
2019-03-20T08:19:42.387Z,9.47
2019-03-20T08:22:45.633Z,7.13
2019-03-20T08:25:48.866Z,10.43
2019-03-20T08:28:52.139Z,10.63
2019-03-20T08:31:55.418Z,8.20
2019-03-20T08:34:58.728Z,7.83
2019-03-20T08:38:02.006Z,8.77
2019-03-20T08:41:05.331Z,9.57
2019-03-20T08:44:08.494Z,5.87
2019-03-20T08:47:11.828Z,6.77
2019-03-20T08:50:16.703Z,12.30
2019-03-20T08:53:20.052Z,5.57
2019-03-20T08:56:23.859Z,5.07
2019-03-20T08:59:27.059Z,8.23
2019-03-20T09:02:30.295Z,11.33
2019-03-20T09:05:33.633Z,12.50
2019-03-20T09:08:36.937Z,11.43
2019-03-20T09:11:40.259Z,8.87
2019-03-20T09:14:43.521Z,9.40
2019-03-20T09:17:46.826Z,8.70
2019-03-20T09:20:50.103Z,7.53
2019-03-20T09:23:53.414Z,10.10
2019-03-20T09:26:56.659Z,11.10
2019-03-20T09:29:59.911Z,12.87
2019-03-20T09:33:03.103Z,11.17
2019-03-20T09:36:06.319Z,6.70
2019-03-20T09:39:09.669Z,9.53
2019-03-20T09:42:13.213Z,12.23
2019-03-20T09:45:16.539Z,9.10
2019-03-20T09:48:21.157Z,9.50
2019-03-20T09:51:24.441Z,12.33
2019-03-20T09:54:27.714Z,7.33
2019-03-20T09:57:31.010Z,8.87
2019-03-20T10:00:34.215Z,8.60
2019-03-20T10:03:37.532Z,9.80
2019-03-20T10:06:40.743Z,7.47
2019-03-20T10:09:43.991Z,7.83
2019-03-20T10:12:47.236Z,8.10
2019-03-20T10:15:50.496Z,7.40
2019-03-20T10:18:53.715Z,11.20
2019-03-20T10:21:56.914Z,7.53
2019-03-20T10:25:00.080Z,7.53
2019-03-20T10:28:03.306Z,9.60
2019-03-20T10:31:06.596Z,6.57
2019-03-20T10:34:09.869Z,5.30
2019-03-20T10:37:13.084Z,8.37
2019-03-20T10:40:18.154Z,10.13
2019-03-20T10:43:21.422Z,7.87
2019-03-20T10:46:24.607Z,7.97
2019-03-20T10:49:27.787Z,7.47
2019-03-20T10:52:31.079Z,11.40
2019-03-20T10:55:34.372Z,8.37
2019-03-20T10:58:38.424Z,11.17
2019-03-20T11:01:42.753Z,7.33
2019-03-20T11:04:44.937Z,8.97
2019-03-20T11:07:48.190Z,6.97
2019-03-20T11:10:51.478Z,5.90
2019-03-20T11:13:54.697Z,6.73
2019-03-20T11:16:57.961Z,7.13
2019-03-20T11:20:01.155Z,7.87
2019-03-20T11:23:04.432Z,6.03
2019-03-20T11:26:08.047Z,8.50
2019-03-20T11:29:11.255Z,6.73
2019-03-20T11:32:14.619Z,12.53
2019-03-20T11:35:17.792Z,6.27
2019-03-20T11:38:20.961Z,6.33
2019-03-20T11:41:24.197Z,6.90
2019-03-20T11:44:27.439Z,4.97
2019-03-20T11:47:31.307Z,7.20
2019-03-20T11:50:36.486Z,8.20
2019-03-20T11:53:39.655Z,6.63
2019-03-20T11:56:42.799Z,7.47
2019-03-20T11:59:46.108Z,7.13
2019-03-20T12:02:49.459Z,5.90
2019-03-20T12:05:52.763Z,5.20
2019-03-20T12:08:56.056Z,6.07
2019-03-20T12:11:59.255Z,8.13
2019-03-20T12:15:02.493Z,5.37
2019-03-20T12:18:05.769Z,5.73
2019-03-20T12:21:08.992Z,5.97
2019-03-20T12:24:12.224Z,6.57
2019-03-20T12:27:15.702Z,7.80
2019-03-20T12:30:20.344Z,8.83
2019-03-20T12:33:23.458Z,7.50
2019-03-20T12:36:26.692Z,8.17
2019-03-20T12:39:29.889Z,7.97
2019-03-20T12:42:33.172Z,6.23
2019-03-20T12:45:36.471Z,7.63
2019-03-20T12:48:39.984Z,4.67
2019-03-20T12:51:43.264Z,3.90
2019-03-20T12:54:46.441Z,7.57
2019-03-20T12:57:49.704Z,12.43
2019-03-20T13:00:54.495Z,6.47
2019-03-20T13:03:56.052Z,6.17
2019-03-20T13:06:59.224Z,6.57
2019-03-20T13:10:03.522Z,7.03
2019-03-20T13:13:05.847Z,4.60
2019-03-20T13:16:09.135Z,4.93
2019-03-20T13:19:12.447Z,8.70
2019-03-20T13:22:15.620Z,6.60
2019-03-20T13:25:18.784Z,5.60
2019-03-20T13:28:22.022Z,8.60
2019-03-20T13:31:26.234Z,6.83
2019-03-20T13:34:29.379Z,9.77
2019-03-20T13:37:32.710Z,5.70
2019-03-20T13:40:35.907Z,6.77
2019-03-20T13:43:39.195Z,6.47
2019-03-20T13:46:43.418Z,8.43
2019-03-20T13:49:46.613Z,7.83
2019-03-20T13:52:49.879Z,5.53
2019-03-20T13:55:53.207Z,7.03
2019-03-20T13:58:56.527Z,6.47
2019-03-20T14:01:59.808Z,4.93
2019-03-20T14:05:02.999Z,7.30
2019-03-20T14:08:06.272Z,6.27
2019-03-20T14:11:09.379Z,7.10
2019-03-20T14:14:12.675Z,5.60
2019-03-20T14:17:16.013Z,7.33
2019-03-20T14:20:21.179Z,3.63
2019-03-20T14:23:24.323Z,8.57
2019-03-20T14:26:27.504Z,8.40
2019-03-20T14:29:30.820Z,6.43
2019-03-20T14:32:33.991Z,7.40
2019-03-20T14:35:37.207Z,6.53
2019-03-20T14:38:40.478Z,7.20
2019-03-20T14:41:43.755Z,6.93
2019-03-20T14:44:47.503Z,5.60
2019-03-20T14:47:50.919Z,6.10
2019-03-20T14:50:54.187Z,10.23
2019-03-20T14:53:57.400Z,6.77
2019-03-20T14:57:00.574Z,6.63
2019-03-20T15:00:03.951Z,7.33
2019-03-20T15:03:07.227Z,5.60
2019-03-20T15:06:10.491Z,5.60
2019-03-20T15:09:13.765Z,7.60
2019-03-20T15:12:16.935Z,6.93
2019-03-20T15:15:23.921Z,6.50
2019-03-20T15:18:27.127Z,6.77
2019-03-20T15:21:30.456Z,5.90
2019-03-20T15:24:33.738Z,8.90
2019-03-20T15:27:36.958Z,4.77
2019-03-20T15:30:40.117Z,5.53
2019-03-20T15:33:43.411Z,6.60
2019-03-20T15:36:46.643Z,6.10
2019-03-20T15:39:49.896Z,6.63
2019-03-20T15:42:53.203Z,5.50
2019-03-20T15:45:56.422Z,6.13
2019-03-20T15:48:59.657Z,5.50
2019-03-20T15:52:02.917Z,7.50
2019-03-20T15:55:07.607Z,6.30
2019-03-20T15:58:11.660Z,6.90
2019-03-20T16:01:14.951Z,6.60
2019-03-20T16:04:18.214Z,6.67
2019-03-20T16:07:21.427Z,10.03
2019-03-20T16:10:24.738Z,5.70
2019-03-20T16:13:28.075Z,8.37
2019-03-20T16:16:31.255Z,9.40
2019-03-20T16:19:34.552Z,6.00
2019-03-20T16:22:37.661Z,7.37
2019-03-20T16:25:40.803Z,8.77
2019-03-20T16:28:43.991Z,6.20
2019-03-20T16:31:47.295Z,6.20
2019-03-20T16:34:50.559Z,8.60
2019-03-20T16:37:53.957Z,8.03
2019-03-20T16:40:57.433Z,7.47
2019-03-20T16:44:00.675Z,9.80
2019-03-20T16:47:03.879Z,10.13
2019-03-20T16:50:07.881Z,10.43
2019-03-20T16:53:11.195Z,10.63
2019-03-20T16:56:14.378Z,7.30
2019-03-20T16:59:17.683Z,8.47
2019-03-20T17:02:21.604Z,6.53
2019-03-20T17:05:24.858Z,11.17
2019-03-20T17:08:28.072Z,9.57
2019-03-20T17:11:38.396Z,10.53
2019-03-20T17:14:34.684Z,7.58
2019-03-20T17:17:37.884Z,17.23
2019-03-20T17:20:41.118Z,10.57
2019-03-20T17:23:44.359Z,8.13
2019-03-20T17:26:47.599Z,7.87
2019-03-20T17:29:51.147Z,9.93
2019-03-20T17:32:54.391Z,14.07
2019-03-20T17:35:57.736Z,13.23
2019-03-20T17:39:00.959Z,15.70
2019-03-20T17:42:04.209Z,10.10
2019-03-20T17:45:07.612Z,17.30
2019-03-20T17:48:10.838Z,16.43
2019-03-20T17:51:14.072Z,14.13
2019-03-20T17:54:17.335Z,17.70
2019-03-20T17:57:20.611Z,14.27
2019-03-20T18:00:29.531Z,13.03
2019-03-20T18:03:32.776Z,15.07
2019-03-20T18:06:36.047Z,15.10
2019-03-20T18:09:39.174Z,14.53
2019-03-20T18:12:42.344Z,10.27
2019-03-20T18:15:45.712Z,15.67
2019-03-20T18:18:48.864Z,8.90
2019-03-20T18:21:52.166Z,10.63
2019-03-20T18:24:55.323Z,13.73
2019-03-20T18:27:58.619Z,13.00
2019-03-20T18:31:02.581Z,6.67
2019-03-20T18:34:05.883Z,9.37
2019-03-20T18:37:09.027Z,11.20
2019-03-20T18:40:13.846Z,6.30
2019-03-20T18:43:17.037Z,15.25
2019-03-20T18:46:20.332Z,14.17
2019-03-20T18:49:23.692Z,11.38
2019-03-20T18:52:27.107Z,16.70
2019-03-20T18:55:30.265Z,22.60
2019-03-20T18:58:33.521Z,19.77
2019-03-20T19:01:36.840Z,14.83
2019-03-20T19:04:40.049Z,19.60
2019-03-20T19:07:43.334Z,19.53
2019-03-20T19:10:46.671Z,15.10
2019-03-20T19:13:49.933Z,14.57
2019-03-20T19:16:53.719Z,19.80
2019-03-20T19:19:56.915Z,30.77
2019-03-20T19:23:00.120Z,13.03
2019-03-20T19:26:03.423Z,15.83
2019-03-20T19:29:06.609Z,11.23
2019-03-20T19:32:09.815Z,17.93
2019-03-20T19:35:13.933Z,13.03
2019-03-20T19:38:18.102Z,11.37
2019-03-20T19:41:21.329Z,11.07
2019-03-20T19:44:24.534Z,14.13
2019-03-20T19:47:27.817Z,11.03
2019-03-20T19:50:31.258Z,15.37
2019-03-20T19:53:34.481Z,9.83
2019-03-20T19:56:37.809Z,11.13
2019-03-20T19:59:41.591Z,9.63
2019-03-20T20:02:44.798Z,13.32
2019-03-20T20:05:48.169Z,11.03
2019-03-20T20:08:51.547Z,11.53
2019-03-20T20:11:54.859Z,13.73
2019-03-20T20:14:58.091Z,12.40
2019-03-20T20:18:01.314Z,13.80
2019-03-20T20:21:04.504Z,11.37
2019-03-20T20:24:07.797Z,14.00
2019-03-20T20:27:11.743Z,13.10
2019-03-20T20:30:16.145Z,11.47
2019-03-20T20:33:21.452Z,9.33
2019-03-20T20:36:24.607Z,13.37
2019-03-20T20:39:27.890Z,13.93
2019-03-20T20:42:42.294Z,10.17
2019-03-20T20:45:34.269Z,10.53
2019-03-20T20:48:37.484Z,9.70
2019-03-20T20:51:40.660Z,13.30
2019-03-20T20:54:43.869Z,9.93
2019-03-20T20:57:47.001Z,11.70
2019-03-20T21:00:50.227Z,16.17
2019-03-20T21:03:53.532Z,16.80
2019-03-20T21:06:56.819Z,16.10
2019-03-20T21:10:00.242Z,11.70
2019-03-20T21:13:03.434Z,12.10
2019-03-20T21:30:04.858Z,20.60
2019-03-20T21:51:14.335Z,18.17
2019-03-20T21:55:09.059Z,19.33
2019-03-20T22:11:37.642Z,17.87
2019-03-20T22:25:05.887Z,12.50
2019-03-20T22:28:28.402Z,14.57
2019-03-20T22:55:16.758Z,11.37
